Whitleys Peak, Santa Catalina Island Weather observations

Data are for 10 minute period ending at time listed.
 Day   Time   Solar   Ave.   Ave.  Ave.  Vector    Max.   Stn.    Total
  of    of     Rad.   Air    Rel.  Wind   Wind     Wind   Baro.  Precip.
Year   Day            Temp.  Hum.  Speed  Dir.     Gust   Pres.         
2014   (PST)   W/m2    F      %     mph   deg.      mph    mb.     in.  
------------------------------------------------------------------------
 352    2:00    0.0    52   83.7    18    257.3    24.5    999.0   0.00  
 352    2:10    0.0    52   83.4    17    262.1    23.9    999.0   0.00  
 352    2:20    0.0    52   83.0    19    267.1    27.4    999.0   0.00  
 352    2:30    0.0    52   82.4    17    269.7    28.6    999.0   0.00  
 352    2:40    0.0    52   82.0    16    269.5    23.3    999.0   0.00  
 352    2:50    0.0    52   81.6    17    264.6    22.7    999.0   0.00  
 352    3:00    0.0    52   81.3    12    273.5    20.3    999.0   0.00  
 352    3:10    0.0    52   81.7    10    284.0    16.1    999.0   0.00  
 352    3:20    0.0    52   81.9    10    264.0    15.5    999.0   0.00  
 352    3:30    0.0    52   82.3    13    279.6    20.9    999.0   0.00  
 352    3:40    0.0    52   82.3    12    294.0    20.3    999.0   0.00  
 352    3:50    0.0    52   82.0    13    297.3    19.7    999.0   0.00  
 352    4:00    0.0    52   81.8    13    292.2    20.3    999.0   0.00  
 352    4:10    0.0    52   82.0    12    290.2    19.1    999.0   0.00  
 352    4:20    0.0    52   82.9    14    282.6    20.3    999.0   0.00  
 352    4:30    0.0    52   83.4    13    291.8    22.1    999.0   0.00  
 352    4:40    0.0    52   83.2    15    280.7    21.5    999.0   0.00  
 352    4:50    0.0    52   83.5    11    279.3    16.7    999.0   0.00  
 352    5:00    0.0    51   84.4    13    282.4    19.1    999.0   0.00  
 352    5:10    0.0    51   84.1    12    287.0    18.5    999.0   0.00  
 352    5:20    0.0    51   84.0    12    285.2    18.5    999.0   0.00  
 352    5:30    0.0    51   83.5    14    295.4    23.3    999.0   0.00  
 352    5:40    0.0    51   82.7    12    287.7    17.9    999.0   0.00  
 352    5:50    0.0    51   82.3    12    291.5    16.7    999.0   0.00  
 352    6:00    0.0    51   81.8    10    287.9    14.3    999.0   0.00  
 352    6:10    0.0    52   81.7    12    274.7    17.9    999.0   0.00  
 352    6:20    0.0    52   81.9    10    271.8    13.7    999.0   0.00  
 352    6:30    0.0    52   82.4    11    266.8    16.1    999.0   0.00  
 352    6:40    0.0    52   83.3    10    287.8    16.1    999.0   0.00  
 352    6:50    0.0    52   84.1     7    276.4    12.5    999.0   0.00  
 352    7:00    4.0    52   86.0     8    276.9    12.5    999.0   0.00  
 352    7:10    7.0    52   85.7     6    267.7    10.8    999.0   0.00  
 352    7:20   18.0    52   85.5     8    262.8    13.1    999.0   0.00  
 352    7:30   50.0    52   84.5    10    259.0    14.3    999.0   0.00  
 352    7:40   37.0    52   84.6     8    265.3    16.7    999.0   0.00  
 352    7:50   29.0    52   84.9     8    261.3    10.2    999.0   0.00  
 352    8:00  119.0    52   84.4     6    240.1     9.0    999.0   0.00  
 352    8:10  145.0    53   83.9     6    225.7     8.4    999.0   0.00  
 352    8:20  124.0    53   84.3     6    221.3     9.6    999.0   0.00  
 352    8:30  113.0    53   84.2     6    227.8     9.6    999.0   0.00  
 352    8:40   70.0    53   84.3     5    287.0     8.4    999.0   0.00  
 352    8:50   77.0    53   84.3     4    282.4     7.8    999.0   0.00  
 352    9:00  127.0    54   83.9     4    278.9     6.0    999.0   0.00  
 352    9:10  312.0    54   82.9     6    278.1     9.0    999.0   0.00  
 352    9:20  222.0    55   82.9     5    298.6     7.2    999.0   0.00  
 352    9:30  142.0    54   83.3     6    305.2     8.4    999.0   0.00  
 352    9:40  118.0    54   83.5     4    336.0     8.4    999.0   0.00  
 352    9:50  158.0    54   83.1     5    304.2     8.4    999.0   0.00  
 352   10:00  264.0    56   82.2     3    326.2     7.2    999.0   0.00  
 352   10:10  284.0    56   79.8     2    315.7     5.4    999.0   0.00  
 352   10:20  178.0    56   79.1     2    176.7     6.0    999.0   0.00  
 352   10:30  169.0    55   85.1     4    109.6     6.6    999.0   0.00  
 352   10:40  193.0    55   86.6     5     80.4     7.2    999.0   0.00  
 352   10:50   89.0    55   86.8     4     65.9     7.2    999.0   0.00  
 352   11:00   71.0    54   87.7     4     16.4     6.0    999.0   0.00  
 352   11:10  149.0    54   88.8     5     58.7     6.0    999.0   0.00  
 352   11:20  154.0    54   89.2     6     80.1     7.2    999.0   0.00  
 352   11:30  141.0    54   89.1     6     86.8     7.8    999.0   0.00  
 352   11:40  148.0    54   88.8     3     76.3     7.8    999.0   0.00  
 352   11:50  154.0    54   89.1     5     83.0     7.8    999.0   0.00  
 352   12:00  121.0    54   89.0     4     85.3     7.8    999.0   0.00  
 352   12:10  120.0    53   88.9     5     69.5     7.8    999.0   0.00  
 352   12:20  105.0    54   89.0     4     75.2     6.0    999.0   0.00  
 352   12:30   75.0    54   89.3     3     55.7     4.8    999.0   0.00  
 352   12:40  122.0    53   90.1     3     86.4     6.0    999.0   0.00  
 352   12:50   88.0    53   92.5     4     92.4     6.0    999.0   0.00  
 352   13:00  102.0    52   93.6     3     96.4     4.2    999.0   0.00  
 352   13:10  136.0    52   94.1     2     94.2     4.2    999.0   0.00  
 352   13:20   89.0    53   94.4     1    137.5     3.6    999.0   0.00  
 352   13:30  115.0    52   94.4     3    113.3     4.8    999.0   0.01  
 352   13:40  105.0    52   94.6     2    107.0     3.6    999.0   0.00  
 352   13:50  100.0    52   94.9     3    104.4     4.8    999.0   0.01  
 352   14:00   69.0    52   95.0     5     95.4     6.0    999.0   0.00  
 352   14:10   65.0    52   95.1     5     94.9     6.6    999.0   0.00  
 352   14:20   74.0    51   95.3     5     95.1     7.2    999.0   0.01  
 352   14:30   63.0    51   95.4     5     89.7     6.6    999.0   0.01  
 352   14:40   88.0    52   95.6     4    105.8     4.8    999.0   0.00  
 352   14:50   67.0    52   95.7     5    100.0     9.0    999.0   0.01  
 352   15:00   52.0    52   95.7     6     99.2     8.4    999.0   0.01  
 352   15:10   29.0    52   95.8     5    105.7     7.8    999.0   0.00  
 352   15:20   23.0    51   95.8     4     84.2     6.0    999.0   0.01  
 352   15:30   31.0    51   95.9     4     93.4     5.4    999.0   0.00  
 352   15:40   28.0    51   95.9     1     56.1     4.8    999.0   0.02  
 352   15:50   40.0    51   96.0     6    119.8     7.8    999.0   0.00  
 352   16:00   66.0    51   96.0     6    132.0     7.8    999.0   0.01  
 352   16:10   29.0    51   96.0     6    120.7     7.8    999.0   0.00  
 352   16:20   25.0    51   96.1     4    262.9     6.0    999.0   0.00  
 352   16:30   25.0    51   96.1     2    295.3     3.6    999.0   0.00  
 352   16:40   22.0    51   96.2     0    323.4     2.4    999.0   0.00  
 352   16:50   14.0    51   96.2     1    297.9     1.8    999.0   0.00  
 352   17:00    5.0    51   96.2     2    279.1     3.0    999.0   0.00  
 352   17:10    0.0    51   96.2     2    298.7     4.2    999.0   0.00  
 352   17:20    0.0    51   96.3     5     96.1     6.6    999.0   0.00  
 352   17:30    0.0    51   96.3     5    101.9     7.8    999.0   0.00  
 352   17:40    0.0    51   96.3     4    129.5     6.6    999.0   0.00  
 352   17:50    0.0    51   96.3     3    188.9     4.2    999.0   0.00  
 352   18:00    0.0    51   96.3     4    216.4     6.0    999.0   0.00  
 352   18:10    0.0    51   96.3     4    202.9     5.4    999.0   0.00  
 352   18:20    0.0    51   96.3     5    192.5     6.6    999.0   0.00  
 352   18:30    0.0    52   96.2     6    197.4     6.6    999.0   0.00  
 352   18:40    0.0    52   94.8     7    194.7     9.6    999.0   0.00  
 352   18:50    0.0    52   94.1     8    194.7    10.2    999.0   0.00  
 352   19:00    0.0    52   93.1     8    189.4     9.6    999.0   0.00  
 352   19:10    0.0    52   92.3     7    183.7     9.0    999.0   0.00  
 352   19:20    0.0    52   91.0     5    175.2     6.6    999.0   0.00  
 352   19:30    0.0    52   91.4     6    169.6     7.2    999.0   0.00  
 352   19:40    0.0    52   92.3     5    166.9     7.2    999.0   0.00  
 352   19:50    0.0    52   92.7     6    182.5     7.2    999.0   0.00  
 352   20:00    0.0    52   92.1     3    165.1     5.4    999.0   0.00  
 352   20:10    0.0    53   90.3     1    148.1     3.6    999.0   0.00  
 352   20:20    0.0    53   88.4     0    232.5     1.8    999.0   0.00  
 352   20:30    0.0    53   89.2     1    205.5     2.4    999.0   0.00  
 352   20:40    0.0    53   87.4     1     57.0     3.0    999.0   0.00  
 352   20:50    0.0    53   87.8     2     36.5     3.6    999.0   0.00  
 352   21:00    0.0    53   87.4     3     72.6     3.6    999.0   0.00  
 352   21:10    0.0    53   87.5     3     66.6     3.6    999.0   0.00  
 352   21:20    0.0    53   87.8     3    107.3     4.2    999.0   0.00  
 352   21:30    0.0    52   88.8     3    120.3     4.8    999.0   0.00  
 352   21:40    0.0    53   88.2     3     70.9     4.8    999.0   0.00  
 352   21:50    0.0    53   88.7     2     40.6     4.2    999.0   0.00  
 352   22:00    0.0    53   89.5     4     42.1     6.6    999.0   0.00  
 352   22:10    0.0    53   90.6     6     49.5     6.6    999.0   0.00  
 352   22:20    0.0    52   92.8     4     46.0     6.0    999.0   0.00  
 352   22:30    0.0    52   93.2     5     67.5     6.6    999.0   0.00  
 352   22:40    0.0    53   93.3     6     74.0     7.2    999.0   0.00  
 352   22:50    0.0    53   93.8     4     91.5     4.8    999.0   0.00  
 352   23:00    0.0    53   94.2     4     91.1     6.0    999.0   0.00  
 352   23:10    0.0    53   94.3     2     93.8     5.4    999.0   0.00  
 352   23:20    0.0    53   94.6     0     83.2     1.2    999.0   0.00  
 352   23:30    0.0    53   94.9     2    101.7     3.6    999.0   0.00  
 352   23:40    0.0    53   95.0     5     74.0     5.4    999.0   0.00  
 352   23:50    0.0    53   95.1     5     72.4     6.0    999.0   0.00  
 353    0:00    0.0    53   95.4     5     85.0     7.2    999.0   0.00  
 353    0:10    0.0    53   95.6     5     97.5     6.6    999.0   0.00  
 353    0:20    0.0    53   95.7     2    120.8     4.8    999.0   0.00  
 353    0:30    0.0    53   95.8     2    105.0     3.6    999.0   0.00  
 353    0:40    0.0    52   95.9     3     62.2     4.8    999.0   0.00  
 353    0:50    0.0    52   96.0     4     44.0     5.4    999.0   0.00  
 353    1:00    0.0    52   96.0     5     78.2     6.0    999.0   0.00  
 353    1:10    0.0    52   96.0     4     83.4     5.4    999.0   0.00  
 353    1:20    0.0    52   96.0     2     57.7     4.2    999.0   0.00  
 353    1:30    0.0    52   95.9     2     37.8     4.2    999.0   0.00  
 353    1:40    0.0    52   95.8     4     46.3     5.4    999.0   0.00  
 353    1:50    0.0    52   94.7     6     67.3     7.8    999.0   0.00  

Return to Whitleys Peak graphs page.


Western Regional Climate Center,wrcc@dri.edu